createdAt,value
2018-12-26T00:00:14.696Z,93.40
2018-12-26T00:02:18.556Z,93.60
2018-12-26T00:04:22.462Z,93.50
2018-12-26T00:06:26.278Z,93.60
2018-12-26T00:08:30.089Z,92.80
2018-12-26T00:10:33.959Z,93.20
2018-12-26T00:12:40.774Z,93.40
2018-12-26T00:14:44.586Z,93.10
2018-12-26T00:16:48.267Z,92.90
2018-12-26T00:18:51.962Z,92.70
2018-12-26T00:20:55.685Z,92.90
2018-12-26T00:22:59.405Z,92.90
2018-12-26T00:25:03.315Z,93.20
2018-12-26T00:27:07.158Z,93.30
2018-12-26T00:29:10.763Z,93.30
2018-12-26T00:31:14.606Z,93.20
2018-12-26T00:33:18.323Z,93.10
2018-12-26T00:35:22.103Z,93.10
2018-12-26T00:37:25.793Z,93.10
2018-12-26T00:39:31.181Z,93.10
2018-12-26T00:41:35.121Z,93.00
2018-12-26T00:43:39.090Z,93.00
2018-12-26T00:45:42.890Z,93.00
2018-12-26T00:47:46.772Z,92.80
2018-12-26T00:49:50.502Z,92.90
2018-12-26T00:51:54.095Z,92.80
2018-12-26T00:53:58.012Z,92.90
2018-12-26T00:56:10.250Z,92.90
2018-12-26T00:58:07.294Z,92.90
2018-12-26T01:00:11.063Z,92.90
2018-12-26T01:02:14.807Z,92.90
2018-12-26T01:04:18.584Z,92.10
2018-12-26T01:06:22.328Z,92.10
2018-12-26T01:08:26.017Z,92.60
2018-12-26T01:10:32.283Z,92.20
2018-12-26T01:12:37.476Z,92.50
2018-12-26T01:14:41.359Z,92.70
2018-12-26T01:16:45.167Z,92.40
2018-12-26T01:18:49.019Z,92.80
2018-12-26T01:20:54.416Z,93.00
2018-12-26T01:22:58.170Z,92.80
2018-12-26T01:25:01.977Z,92.80
2018-12-26T01:27:05.784Z,93.10
2018-12-26T01:29:09.517Z,93.70
2018-12-26T01:31:15.110Z,94.20
2018-12-26T01:33:20.897Z,94.20
2018-12-26T01:35:24.456Z,94.30
2018-12-26T01:37:28.079Z,94.40
2018-12-26T01:39:31.859Z,94.50
2018-12-26T01:41:35.710Z,94.30
2018-12-26T01:43:39.414Z,94.20
2018-12-26T01:45:43.222Z,94.20
2018-12-26T01:47:46.952Z,93.90
2018-12-26T01:49:50.778Z,93.70
2018-12-26T01:51:54.626Z,93.40
2018-12-26T01:53:59.899Z,93.20
2018-12-26T01:56:03.688Z,93.20
2018-12-26T01:58:07.486Z,93.20
2018-12-26T02:00:11.383Z,93.30
2018-12-26T02:02:15.062Z,93.20
2018-12-26T02:04:18.861Z,93.30
2018-12-26T02:06:22.671Z,93.10
2018-12-26T02:08:26.576Z,93.00
2018-12-26T02:10:30.316Z,92.90
2018-12-26T02:12:34.088Z,92.90
2018-12-26T02:14:37.835Z,93.00
2018-12-26T02:16:41.679Z,92.80
2018-12-26T02:18:48.495Z,92.60
2018-12-26T02:20:55.313Z,92.60
2018-12-26T02:22:59.149Z,92.60
2018-12-26T02:25:02.795Z,92.40
2018-12-26T02:27:06.529Z,91.80
2018-12-26T02:29:10.310Z,91.70
2018-12-26T02:31:14.058Z,91.60
2018-12-26T02:33:19.542Z,91.60
2018-12-26T02:35:23.305Z,91.60
2018-12-26T02:37:27.012Z,91.70
2018-12-26T02:39:30.863Z,91.90
2018-12-26T02:41:34.690Z,92.20
2018-12-26T02:43:38.580Z,92.00
2018-12-26T02:45:42.322Z,92.20
2018-12-26T02:47:46.058Z,92.10
2018-12-26T02:49:49.885Z,92.30
2018-12-26T02:51:53.585Z,92.40
2018-12-26T02:53:57.330Z,92.50
2018-12-26T02:56:01.371Z,92.40
2018-12-26T02:58:05.387Z,92.40
2018-12-26T03:00:09.507Z,92.20
2018-12-26T03:02:13.345Z,92.20
2018-12-26T03:04:17.081Z,92.10
2018-12-26T03:06:21.059Z,92.00
2018-12-26T03:08:24.846Z,92.10
2018-12-26T03:10:28.477Z,91.80
2018-12-26T03:12:32.302Z,91.20
2018-12-26T03:14:36.105Z,90.90
2018-12-26T03:16:39.851Z,91.00
2018-12-26T03:18:45.153Z,91.10
2018-12-26T03:20:48.867Z,91.10
2018-12-26T03:22:52.724Z,91.20
2018-12-26T03:24:56.494Z,91.50
2018-12-26T03:27:00.194Z,91.40
2018-12-26T03:29:03.997Z,91.20
2018-12-26T03:31:07.687Z,91.10
2018-12-26T03:33:11.445Z,91.10
2018-12-26T03:35:15.174Z,91.20
2018-12-26T03:37:18.921Z,91.40
2018-12-26T03:39:22.731Z,91.50
2018-12-26T03:41:26.567Z,91.70
2018-12-26T03:43:31.735Z,91.60
2018-12-26T03:45:36.527Z,91.10
2018-12-26T03:47:41.040Z,91.30
2018-12-26T03:49:44.919Z,91.30
2018-12-26T03:51:51.648Z,91.40
2018-12-26T03:53:55.514Z,91.50
2018-12-26T03:55:59.304Z,91.40
2018-12-26T03:58:02.992Z,91.60
2018-12-26T04:00:13.386Z,91.60
2018-12-26T04:02:14.513Z,91.70
2018-12-26T04:04:18.305Z,91.40
2018-12-26T04:06:24.184Z,91.50
2018-12-26T04:08:28.060Z,91.50
2018-12-26T04:10:31.819Z,91.40
2018-12-26T04:12:35.574Z,91.30
2018-12-26T04:14:42.863Z,91.20
2018-12-26T04:16:46.671Z,91.20
2018-12-26T04:18:50.405Z,91.10
2018-12-26T04:20:54.260Z,90.80
2018-12-26T04:22:58.270Z,90.20
2018-12-26T04:25:02.080Z,90.30
2018-12-26T04:27:15.297Z,90.50
2018-12-26T04:29:11.057Z,90.70
2018-12-26T04:31:14.751Z,90.70
2018-12-26T04:33:18.480Z,90.60
2018-12-26T04:35:22.084Z,90.80
2018-12-26T04:37:25.782Z,90.90
2018-12-26T04:39:29.424Z,91.00
2018-12-26T04:41:33.197Z,90.80
2018-12-26T04:43:39.594Z,90.90
2018-12-26T04:45:43.346Z,91.00
2018-12-26T04:47:47.000Z,90.90
2018-12-26T04:49:50.835Z,90.70
2018-12-26T04:51:54.535Z,90.70
2018-12-26T04:53:58.337Z,90.70
2018-12-26T04:56:02.185Z,90.60
2018-12-26T04:58:05.963Z,90.50
2018-12-26T05:00:09.851Z,90.30
2018-12-26T05:02:13.644Z,90.10
2018-12-26T05:04:17.419Z,89.40
2018-12-26T05:06:21.116Z,89.20
2018-12-26T05:08:24.896Z,88.90
2018-12-26T05:10:28.577Z,89.50
2018-12-26T05:12:32.306Z,89.40
2018-12-26T05:14:36.114Z,88.70
2018-12-26T05:16:40.186Z,89.80
2018-12-26T05:18:44.091Z,90.10
2018-12-26T05:20:47.843Z,90.40
2018-12-26T05:22:51.671Z,90.70
2018-12-26T05:24:55.535Z,90.70
2018-12-26T05:26:59.352Z,90.50
2018-12-26T05:29:03.115Z,90.70
2018-12-26T05:31:06.892Z,90.80
2018-12-26T05:33:10.711Z,90.80
2018-12-26T05:35:14.469Z,90.80
2018-12-26T05:37:18.396Z,90.70
2018-12-26T05:39:22.001Z,90.60
2018-12-26T05:41:25.668Z,90.60
2018-12-26T05:43:29.505Z,90.60
2018-12-26T05:45:33.207Z,90.60
2018-12-26T05:47:36.875Z,90.50
2018-12-26T05:49:40.556Z,90.40
2018-12-26T05:51:44.172Z,90.40
2018-12-26T05:53:47.873Z,90.30
2018-12-26T05:55:51.625Z,90.40
2018-12-26T05:57:55.425Z,90.40
2018-12-26T05:59:59.125Z,90.30
2018-12-26T06:02:02.734Z,90.20
2018-12-26T06:04:06.516Z,90.30
2018-12-26T06:06:10.153Z,90.10
2018-12-26T06:08:13.987Z,90.10
2018-12-26T06:10:20.075Z,89.70
2018-12-26T06:12:23.880Z,90.00
2018-12-26T06:14:27.656Z,90.00
2018-12-26T06:16:31.319Z,90.10
2018-12-26T06:18:35.018Z,90.10
2018-12-26T06:20:38.732Z,90.00
2018-12-26T06:22:42.460Z,90.00
2018-12-26T06:24:48.375Z,89.80
2018-12-26T06:26:52.109Z,89.10
2018-12-26T06:28:55.914Z,88.80
2018-12-26T06:30:59.651Z,88.40
2018-12-26T06:33:03.251Z,88.70
2018-12-26T06:35:07.022Z,88.90
2018-12-26T06:37:10.638Z,89.10
2018-12-26T06:39:14.507Z,89.40
2018-12-26T06:41:18.233Z,89.30
2018-12-26T06:43:22.008Z,88.90
2018-12-26T06:45:25.688Z,88.30
2018-12-26T06:47:29.389Z,88.40
2018-12-26T06:49:33.094Z,88.80
2018-12-26T06:51:36.927Z,89.10
2018-12-26T06:53:40.579Z,88.70
2018-12-26T06:55:44.293Z,88.10
2018-12-26T06:57:48.038Z,88.20
2018-12-26T06:59:51.754Z,88.50
2018-12-26T07:01:55.498Z,88.80
2018-12-26T07:03:59.156Z,89.20
2018-12-26T07:06:02.979Z,89.00
2018-12-26T07:08:06.617Z,88.60
2018-12-26T07:10:10.325Z,88.80
2018-12-26T07:12:14.019Z,89.20
2018-12-26T07:14:17.733Z,89.00
2018-12-26T07:16:21.457Z,89.70
2018-12-26T07:18:25.320Z,90.00
2018-12-26T07:20:28.959Z,90.00
2018-12-26T07:22:32.681Z,90.10
2018-12-26T07:24:36.367Z,90.20
2018-12-26T07:26:40.067Z,90.40
2018-12-26T07:28:43.817Z,90.50
2018-12-26T07:30:47.531Z,89.80
2018-12-26T07:32:51.184Z,89.80
2018-12-26T07:34:54.923Z,90.20
2018-12-26T07:36:58.538Z,89.90
2018-12-26T07:39:03.382Z,89.70
2018-12-26T07:41:07.122Z,89.00
2018-12-26T07:43:10.756Z,88.00
2018-12-26T07:45:14.569Z,88.00
2018-12-26T07:47:18.404Z,87.90
2018-12-26T07:49:23.804Z,88.30
2018-12-26T07:51:27.599Z,87.40
2018-12-26T07:53:31.378Z,87.90
2018-12-26T07:55:35.069Z,88.10
2018-12-26T07:57:38.857Z,88.60
2018-12-26T07:59:42.531Z,88.60
2018-12-26T08:01:46.379Z,88.90
2018-12-26T08:03:50.100Z,89.40
2018-12-26T08:05:53.882Z,89.20
2018-12-26T08:07:57.653Z,89.50
2018-12-26T08:10:01.428Z,89.20
2018-12-26T08:12:05.326Z,89.20
2018-12-26T08:14:08.913Z,90.00
2018-12-26T08:16:12.736Z,89.50
2018-12-26T08:18:16.535Z,89.40
2018-12-26T08:20:20.350Z,89.10
2018-12-26T08:22:24.180Z,88.50
2018-12-26T08:24:27.976Z,88.50
2018-12-26T08:26:31.574Z,88.60
2018-12-26T08:28:38.313Z,88.80
2018-12-26T08:30:41.843Z,88.20
2018-12-26T08:32:45.696Z,83.90
2018-12-26T08:34:49.393Z,80.90
2018-12-26T08:36:53.181Z,79.20
2018-12-26T08:38:56.982Z,78.50
2018-12-26T08:41:00.759Z,77.00
2018-12-26T08:43:04.557Z,76.20
2018-12-26T08:45:08.318Z,75.30
2018-12-26T08:47:12.011Z,72.40
2018-12-26T08:49:15.743Z,70.80
2018-12-26T08:51:19.484Z,71.20
2018-12-26T08:53:23.307Z,71.20
2018-12-26T08:55:27.068Z,71.10
2018-12-26T08:57:30.891Z,70.10
2018-12-26T08:59:34.659Z,70.90
2018-12-26T09:01:38.327Z,72.80
2018-12-26T09:03:42.142Z,72.40
2018-12-26T09:05:45.830Z,73.30
2018-12-26T09:07:49.972Z,74.20
2018-12-26T09:09:55.215Z,75.40
2018-12-26T09:11:58.835Z,77.30
2018-12-26T09:14:02.533Z,77.60
2018-12-26T09:16:06.229Z,79.20
2018-12-26T09:18:12.309Z,83.50
2018-12-26T09:20:16.101Z,84.90
2018-12-26T09:22:21.774Z,84.30
2018-12-26T09:24:25.939Z,84.80
2018-12-26T09:26:31.039Z,84.70
2018-12-26T09:28:43.755Z,84.90
2018-12-26T09:30:45.068Z,84.90
2018-12-26T09:32:50.761Z,86.30
2018-12-26T09:34:56.746Z,87.60
2018-12-26T09:37:00.747Z,89.30
2018-12-26T09:39:06.872Z,89.30
2018-12-26T09:41:10.811Z,89.90
2018-12-26T09:43:19.940Z,90.30
2018-12-26T09:45:26.115Z,90.70
2018-12-26T09:47:31.620Z,91.00
2018-12-26T09:49:37.597Z,92.50
2018-12-26T09:51:41.494Z,92.90
2018-12-26T09:53:45.254Z,92.90
2018-12-26T09:55:49.018Z,93.00
2018-12-26T09:57:54.035Z,92.90
2018-12-26T09:59:57.911Z,92.80
2018-12-26T10:02:01.774Z,92.60
2018-12-26T10:04:06.064Z,91.10
2018-12-26T10:06:11.345Z,90.70
2018-12-26T10:08:15.890Z,91.50
2018-12-26T10:10:20.380Z,89.20
2018-12-26T10:12:24.707Z,79.00
2018-12-26T10:14:30.990Z,70.20
2018-12-26T10:16:37.734Z,63.50
2018-12-26T10:18:42.414Z,62.80
2018-12-26T10:20:46.304Z,68.00
2018-12-26T10:23:00.538Z,56.50
2018-12-26T10:24:56.383Z,42.60
2018-12-26T10:27:01.507Z,35.90
2018-12-26T10:29:07.232Z,19.90
2018-12-26T10:31:14.014Z,21.90
2018-12-26T10:33:18.899Z,18.10
2018-12-26T10:35:23.563Z,13.50
2018-12-26T10:37:27.281Z,13.30
2018-12-26T10:39:31.054Z,8.60
2018-12-26T10:41:34.921Z,9.30
2018-12-26T10:43:38.541Z,11.30
2018-12-26T10:45:42.241Z,11.00
2018-12-26T10:47:45.942Z,10.10
2018-12-26T10:49:49.602Z,10.40
2018-12-26T10:51:53.430Z,8.00
2018-12-26T10:53:58.790Z,4.40
2018-12-26T10:56:03.427Z,6.10
2018-12-26T10:58:07.206Z,7.30
2018-12-26T11:00:11.903Z,5.40
2018-12-26T11:02:15.676Z,3.90
2018-12-26T11:04:19.376Z,6.80
2018-12-26T11:06:23.452Z,4.60
2018-12-26T11:08:27.266Z,3.60
2018-12-26T11:10:30.994Z,2.30
2018-12-26T11:12:34.862Z,2.50
2018-12-26T11:14:41.097Z,4.00
2018-12-26T11:16:45.011Z,2.50
2018-12-26T11:18:48.784Z,3.50
2018-12-26T11:20:52.571Z,1.00
2018-12-26T11:22:56.328Z,1.00
2018-12-26T11:25:01.187Z,1.00
2018-12-26T11:27:05.145Z,1.00
2018-12-26T11:29:09.659Z,1.90
2018-12-26T11:31:14.140Z,2.60
2018-12-26T11:33:18.013Z,1.00
2018-12-26T11:35:21.912Z,1.00
2018-12-26T11:37:27.154Z,1.00
2018-12-26T11:39:31.264Z,1.00
2018-12-26T11:41:35.068Z,1.00
2018-12-26T11:43:38.977Z,1.00
2018-12-26T11:45:42.733Z,1.00
2018-12-26T11:47:46.534Z,1.00
2018-12-26T11:49:50.861Z,1.00
2018-12-26T11:51:55.377Z,1.00
2018-12-26T11:53:59.204Z,1.00
2018-12-26T11:56:02.971Z,1.00
2018-12-26T11:58:06.820Z,1.00
2018-12-26T12:00:12.017Z,1.00
2018-12-26T12:02:20.545Z,1.00
2018-12-26T12:04:26.864Z,1.00
2018-12-26T12:22:33.010Z,1.00
2018-12-26T12:24:42.651Z,1.00
2018-12-26T12:31:44.045Z,1.00
2018-12-26T12:33:53.536Z,1.00
2018-12-26T12:36:05.782Z,1.00
2018-12-26T12:38:10.370Z,1.00
2018-12-26T12:40:14.891Z,1.00
2018-12-26T12:42:23.592Z,1.00
2018-12-26T12:44:27.532Z,1.00
2018-12-26T12:46:31.268Z,1.00
2018-12-26T12:48:36.723Z,1.00
2018-12-26T12:50:43.357Z,1.00
2018-12-26T12:52:48.884Z,1.00
2018-12-26T12:54:52.616Z,1.00
2018-12-26T12:56:56.317Z,1.00
2018-12-26T12:59:00.073Z,1.00
2018-12-26T13:01:03.823Z,1.00
2018-12-26T13:03:07.547Z,1.00
2018-12-26T13:05:11.306Z,1.00
2018-12-26T13:07:15.925Z,1.00
2018-12-26T13:09:21.135Z,1.00
2018-12-26T13:11:25.055Z,1.00
2018-12-26T13:13:28.710Z,1.00
2018-12-26T13:15:32.483Z,1.00
2018-12-26T13:17:36.279Z,1.40
2018-12-26T13:19:39.945Z,1.50
2018-12-26T13:21:43.927Z,3.20
2018-12-26T13:23:47.584Z,3.80
2018-12-26T13:25:51.256Z,6.40
2018-12-26T13:27:54.917Z,9.10
2018-12-26T13:29:58.708Z,12.20
2018-12-26T13:32:02.415Z,12.60
2018-12-26T13:34:06.233Z,12.90
2018-12-26T13:36:09.924Z,14.00
2018-12-26T13:38:13.706Z,15.90
2018-12-26T13:40:17.404Z,19.20
2018-12-26T13:42:21.145Z,21.70
2018-12-26T13:44:24.741Z,22.00
2018-12-26T13:46:33.777Z,22.80
2018-12-26T13:48:33.873Z,22.60
2018-12-26T13:50:37.658Z,24.10
2018-12-26T13:52:41.306Z,22.40
2018-12-26T13:54:44.898Z,24.10
2018-12-26T13:56:48.671Z,25.10
2018-12-26T13:58:52.328Z,26.00
2018-12-26T14:00:56.106Z,25.80
2018-12-26T14:02:59.760Z,26.10
2018-12-26T14:05:03.524Z,26.40
2018-12-26T14:07:07.222Z,26.90
2018-12-26T14:09:10.909Z,28.00
2018-12-26T14:11:14.714Z,27.00
2018-12-26T14:13:18.305Z,28.40
2018-12-26T14:15:21.977Z,29.40
2018-12-26T14:17:25.726Z,30.50
2018-12-26T14:19:29.405Z,30.90
2018-12-26T14:21:32.985Z,30.90
2018-12-26T14:23:36.827Z,30.00
2018-12-26T14:25:40.559Z,30.50
2018-12-26T14:27:44.262Z,29.30
2018-12-26T14:29:48.045Z,27.00
2018-12-26T14:31:51.643Z,25.30
2018-12-26T14:33:55.226Z,23.70
2018-12-26T14:35:58.955Z,22.50
2018-12-26T14:38:02.765Z,22.60
2018-12-26T14:40:06.696Z,22.60
2018-12-26T14:42:10.300Z,20.80
2018-12-26T14:44:14.069Z,20.30
2018-12-26T14:46:17.795Z,20.20
2018-12-26T14:48:21.634Z,20.00
2018-12-26T14:50:27.280Z,20.10
2018-12-26T14:52:30.738Z,19.90
2018-12-26T14:54:34.420Z,20.30
2018-12-26T14:56:38.081Z,20.90
2018-12-26T14:58:41.879Z,22.20
2018-12-26T15:00:45.593Z,22.60
2018-12-26T15:02:49.293Z,24.40
2018-12-26T15:04:53.073Z,24.30
2018-12-26T15:06:56.719Z,24.70
2018-12-26T15:09:00.428Z,25.50
2018-12-26T15:11:04.702Z,26.30
2018-12-26T15:13:08.619Z,26.90
2018-12-26T15:15:14.003Z,27.80
2018-12-26T15:17:17.744Z,28.50
2018-12-26T15:19:21.581Z,29.40
2018-12-26T15:21:26.926Z,30.10
2018-12-26T15:23:30.581Z,31.60
2018-12-26T15:25:34.257Z,31.90
2018-12-26T15:27:37.924Z,33.20
2018-12-26T15:29:41.546Z,34.20
2018-12-26T15:31:45.330Z,35.20
2018-12-26T15:33:49.048Z,36.90
2018-12-26T15:35:52.857Z,38.00
2018-12-26T15:37:56.673Z,38.30
2018-12-26T15:40:00.291Z,39.40
2018-12-26T15:42:05.494Z,40.20
2018-12-26T15:44:09.880Z,40.10
2018-12-26T15:46:14.299Z,41.10
2018-12-26T15:48:18.547Z,44.80
2018-12-26T15:50:22.348Z,45.00
2018-12-26T15:52:26.027Z,46.40
2018-12-26T15:54:29.707Z,49.70
2018-12-26T15:56:33.442Z,50.00
2018-12-26T15:58:37.124Z,50.60
2018-12-26T16:00:41.004Z,51.60
2018-12-26T16:02:44.761Z,53.10
2018-12-26T16:04:48.430Z,54.40
2018-12-26T16:06:52.182Z,56.50
2018-12-26T16:08:55.909Z,55.60
2018-12-26T16:10:59.765Z,55.80
2018-12-26T16:13:03.442Z,56.00
2018-12-26T16:15:08.645Z,57.00
2018-12-26T16:17:12.396Z,57.60
2018-12-26T16:19:16.121Z,57.50
2018-12-26T16:21:19.887Z,57.50
2018-12-26T16:23:23.721Z,57.40
2018-12-26T16:25:27.324Z,58.30
2018-12-26T16:27:31.047Z,58.00
2018-12-26T16:29:34.706Z,58.80
2018-12-26T16:31:38.500Z,60.10
2018-12-26T16:33:42.231Z,60.00
2018-12-26T16:35:46.004Z,61.40
2018-12-26T16:37:49.684Z,62.20
2018-12-26T16:39:53.411Z,63.00
2018-12-26T16:41:57.207Z,64.00
2018-12-26T16:44:01.190Z,63.40
2018-12-26T16:46:04.987Z,65.30
2018-12-26T16:48:09.614Z,66.40
2018-12-26T16:50:16.881Z,67.30
2018-12-26T16:52:21.247Z,67.20
2018-12-26T16:54:25.758Z,68.30
2018-12-26T16:56:29.496Z,68.20
2018-12-26T16:58:33.223Z,69.70
2018-12-26T17:00:37.069Z,70.50
2018-12-26T17:02:40.916Z,71.60
2018-12-26T17:04:46.004Z,71.50
2018-12-26T17:06:49.662Z,72.70
2018-12-26T17:08:55.319Z,74.50
2018-12-26T17:10:58.747Z,74.90
2018-12-26T17:13:04.782Z,76.30
2018-12-26T17:15:08.552Z,78.00
2018-12-26T17:17:12.290Z,79.10
2018-12-26T17:19:16.007Z,78.70
2018-12-26T17:21:20.844Z,78.70
2018-12-26T17:23:24.515Z,79.10
2018-12-26T17:25:28.193Z,80.20
2018-12-26T17:27:31.966Z,79.90
2018-12-26T17:29:35.638Z,80.10
2018-12-26T17:31:39.351Z,80.60
2018-12-26T17:33:44.720Z,81.20
2018-12-26T17:35:48.478Z,81.40
2018-12-26T17:37:52.194Z,81.60
2018-12-26T17:39:55.864Z,81.80
2018-12-26T17:41:59.640Z,81.90
2018-12-26T17:44:03.313Z,83.20
2018-12-26T17:46:07.862Z,83.00
2018-12-26T17:48:11.479Z,83.40
2018-12-26T17:50:34.790Z,83.80
2018-12-26T17:52:38.507Z,83.80
2018-12-26T17:54:44.770Z,83.80
2018-12-26T17:56:50.702Z,83.90
2018-12-26T17:59:25.916Z,83.60
2018-12-26T18:01:41.436Z,84.20
2018-12-26T18:03:45.099Z,84.30
2018-12-26T18:05:48.851Z,86.40
2018-12-26T18:07:52.443Z,86.30
2018-12-26T18:09:56.229Z,86.80
2018-12-26T18:12:11.172Z,86.80
2018-12-26T18:14:05.344Z,87.10
2018-12-26T18:16:08.994Z,88.80
2018-12-26T18:18:12.744Z,90.00
2018-12-26T18:20:16.623Z,90.40
2018-12-26T18:22:20.356Z,90.70
2018-12-26T18:24:26.059Z,91.10
2018-12-26T18:26:32.860Z,92.10
2018-12-26T18:28:39.345Z,91.90
2018-12-26T18:30:42.648Z,91.90
2018-12-26T18:32:46.302Z,91.90
2018-12-26T18:34:50.080Z,92.20
2018-12-26T18:36:53.831Z,92.00
2018-12-26T18:38:57.704Z,92.20
2018-12-26T18:41:01.595Z,92.70
2018-12-26T18:43:07.349Z,92.90
2018-12-26T18:45:10.989Z,92.50
2018-12-26T18:47:14.680Z,92.30
2018-12-26T18:49:18.611Z,92.40
2018-12-26T18:51:22.649Z,92.70
2018-12-26T18:53:26.379Z,92.60
2018-12-26T18:55:30.241Z,92.80
2018-12-26T18:57:34.040Z,92.70
2018-12-26T18:59:38.675Z,92.70
2018-12-26T19:01:42.818Z,92.60
2018-12-26T19:03:46.642Z,92.70
2018-12-26T19:05:51.143Z,92.70
2018-12-26T19:07:55.593Z,92.70
2018-12-26T19:09:59.395Z,92.60
2018-12-26T19:12:03.083Z,92.30
2018-12-26T19:14:06.825Z,92.30
2018-12-26T19:16:10.617Z,92.60
2018-12-26T19:18:14.286Z,92.40
2018-12-26T19:20:18.138Z,92.40
2018-12-26T19:22:21.898Z,92.50
2018-12-26T19:24:25.658Z,92.60
2018-12-26T19:26:29.453Z,92.50
2018-12-26T19:28:33.138Z,92.50
2018-12-26T19:30:36.898Z,92.40
2018-12-26T19:32:40.640Z,92.40
2018-12-26T19:34:44.352Z,92.70
2018-12-26T19:36:47.985Z,92.60
2018-12-26T19:38:51.671Z,93.20
2018-12-26T19:40:55.404Z,93.40
2018-12-26T19:42:59.248Z,93.40
2018-12-26T19:45:03.009Z,93.50
2018-12-26T19:47:06.707Z,93.70
2018-12-26T19:49:10.438Z,93.70
2018-12-26T19:51:14.155Z,93.90
2018-12-26T19:53:17.857Z,94.10
2018-12-26T19:55:24.362Z,94.50
2018-12-26T19:57:27.976Z,93.40
2018-12-26T19:59:32.770Z,93.70
2018-12-26T20:01:36.513Z,94.60
2018-12-26T20:03:40.150Z,95.50
2018-12-26T20:05:43.860Z,95.40
2018-12-26T20:07:47.651Z,94.80
2018-12-26T20:09:51.245Z,94.80
2018-12-26T20:11:57.974Z,95.60
2018-12-26T20:14:01.810Z,96.20
2018-12-26T20:16:05.551Z,96.40
2018-12-26T20:18:09.261Z,96.20
2018-12-26T20:20:12.924Z,96.60
2018-12-26T20:22:16.715Z,96.40
2018-12-26T20:24:20.708Z,96.70
2018-12-26T20:26:24.330Z,97.30
2018-12-26T20:28:28.058Z,96.60
2018-12-26T20:30:31.869Z,96.90
2018-12-26T20:32:35.556Z,96.90
2018-12-26T20:34:39.181Z,96.80
2018-12-26T20:36:42.970Z,97.50
2018-12-26T20:38:46.562Z,97.00
2018-12-26T20:40:50.223Z,97.10
2018-12-26T20:42:53.924Z,97.00
2018-12-26T20:44:57.542Z,97.10
2018-12-26T20:47:01.236Z,97.10
2018-12-26T20:49:04.979Z,97.00
2018-12-26T20:51:08.670Z,97.00
2018-12-26T20:53:12.456Z,96.80
2018-12-26T20:55:16.185Z,96.90
2018-12-26T20:57:21.711Z,96.70
2018-12-26T20:59:25.422Z,96.60
2018-12-26T21:01:29.248Z,96.60
2018-12-26T21:03:33.025Z,96.50
2018-12-26T21:05:37.034Z,96.40
2018-12-26T21:07:40.793Z,96.30
2018-12-26T21:09:44.518Z,96.30
2018-12-26T21:11:48.270Z,96.20
2018-12-26T21:13:51.965Z,96.30
2018-12-26T21:15:58.253Z,96.20
2018-12-26T21:18:01.931Z,96.20
2018-12-26T21:20:07.416Z,96.00
2018-12-26T21:22:11.176Z,96.20
2018-12-26T21:24:14.885Z,96.00
2018-12-26T21:26:18.497Z,95.50
2018-12-26T21:28:22.165Z,95.50
2018-12-26T21:30:26.086Z,95.80
2018-12-26T21:32:29.826Z,95.50
2018-12-26T21:34:33.577Z,95.50
2018-12-26T21:36:37.286Z,95.80
2018-12-26T21:38:41.041Z,95.40
2018-12-26T21:40:44.725Z,95.30
2018-12-26T21:42:48.537Z,95.30
2018-12-26T21:44:52.356Z,95.40
2018-12-26T21:46:56.046Z,95.30
2018-12-26T21:48:59.659Z,95.50
2018-12-26T21:51:03.371Z,95.40
2018-12-26T21:53:07.032Z,95.50
2018-12-26T21:55:10.835Z,95.60
2018-12-26T21:57:14.528Z,95.60
2018-12-26T21:59:20.991Z,95.50
2018-12-26T22:01:23.745Z,95.50
2018-12-26T22:03:27.394Z,95.40
2018-12-26T22:05:31.107Z,95.30
2018-12-26T22:07:34.746Z,95.30
2018-12-26T22:09:38.406Z,95.20
2018-12-26T22:11:42.173Z,94.50
2018-12-26T22:13:46.013Z,94.40
2018-12-26T22:15:49.796Z,94.90
2018-12-26T22:17:53.604Z,94.90
2018-12-26T22:19:57.371Z,95.10
2018-12-26T22:22:01.107Z,95.20
2018-12-26T22:24:04.963Z,95.00
2018-12-26T22:26:08.762Z,95.00
2018-12-26T22:28:12.327Z,94.90
2018-12-26T22:30:16.053Z,94.90
2018-12-26T22:32:19.858Z,94.90
2018-12-26T22:34:23.556Z,95.10
2018-12-26T22:36:27.402Z,95.00
2018-12-26T22:38:31.016Z,94.50
2018-12-26T22:40:34.812Z,94.60
2018-12-26T22:42:38.651Z,94.50
2018-12-26T22:44:42.425Z,94.50
2018-12-26T22:46:46.207Z,94.90
2018-12-26T22:48:50.010Z,95.00
2018-12-26T22:50:53.759Z,95.10
2018-12-26T22:52:57.514Z,95.00
2018-12-26T22:55:01.254Z,95.10
2018-12-26T22:57:05.055Z,95.20
2018-12-26T22:59:08.725Z,95.20
2018-12-26T23:01:12.425Z,95.20
2018-12-26T23:03:16.144Z,95.00
2018-12-26T23:05:19.905Z,95.20
2018-12-26T23:07:23.527Z,95.10
2018-12-26T23:09:27.135Z,95.10
2018-12-26T23:11:30.997Z,94.90
2018-12-26T23:13:34.678Z,94.90
2018-12-26T23:15:38.450Z,95.10
2018-12-26T23:17:42.178Z,95.10
2018-12-26T23:19:45.916Z,95.10
2018-12-26T23:21:49.726Z,95.20
2018-12-26T23:23:53.429Z,95.10
2018-12-26T23:25:57.182Z,95.00
2018-12-26T23:28:00.983Z,94.90
2018-12-26T23:30:06.197Z,94.90
2018-12-26T23:32:10.034Z,94.90
2018-12-26T23:34:13.728Z,94.90
2018-12-26T23:36:17.505Z,95.00
2018-12-26T23:38:21.222Z,95.00
2018-12-26T23:40:24.891Z,95.00
2018-12-26T23:42:28.726Z,94.80
2018-12-26T23:44:32.389Z,94.90
2018-12-26T23:46:36.073Z,94.90
2018-12-26T23:48:39.879Z,94.70
2018-12-26T23:50:43.546Z,94.90
2018-12-26T23:52:47.287Z,94.70
2018-12-26T23:54:51.079Z,94.70
2018-12-26T23:56:54.832Z,94.80
2018-12-26T23:58:58.714Z,94.80
